.
WxDataArchive / Data Records for 2006-02-25
2006-02-24 February 2006 2006-02-26

Data Records for Saturday, 25 February 2006

Time	Temp	Chill	HIndex	Humid	Dewpt	 Wind 	HiWind	WindDir	Rain 	Barom 
-----	----	-----	------	-----	-----	------	------	-------	-----	----- 
00:00	39.6	39.6	39.6	52	23.4	2	4	248	0.00	29.949 
00:05	39.5	39.5	39.5	53	23.8	1	5	248	0.00	29.949 
00:10	39.5	39.5	39.5	53	23.8	1	3	248	0.00	29.949 
00:15	39.6	39.6	39.6	53	23.9	2	9	248	0.00	29.944 
00:20	39.6	39.6	39.6	53	23.9	2	4	270	0.00	29.944 
00:25	39.8	39.8	39.8	53	24.1	2	5	270	0.00	29.944 
00:30	39.9	39.9	39.9	53	24.2	2	5	248	0.00	29.937 
00:35	39.9	39.9	39.9	53	24.2	3	6	248	0.00	29.937 
00:40	40.1	40.1	40.1	53	24.4	2	5	248	0.00	29.937 
00:45	40.5	40.5	40.5	51	23.8	3	9	248	0.00	29.931 
00:50	40.9	40.9	40.9	51	24.2	3	9	248	0.00	29.931 
00:55	41.5	38.2	41.5	50	24.3	5	10	248	0.00	29.931 
01:00	41.9	39.5	41.9	49	24.1	4	10	248	0.00	29.924 
01:05	42.1	38.9	42.1	48	23.8	5	10	248	0.00	29.924 
01:10	42.1	39.7	42.1	48	23.8	4	10	270	0.00	29.924 
01:15	42.2	39.1	42.2	48	23.9	5	11	248	0.00	29.919 
01:20	42.2	39.1	42.2	48	23.9	5	12	248	0.00	29.919 
01:25	42.1	39.7	42.1	49	24.3	4	7	248	0.00	29.919 
01:30	42.1	39.7	42.1	48	23.8	4	9	248	0.00	29.913 
01:35	42.1	39.7	42.1	48	23.8	4	12	248	0.00	29.913 
01:40	42.3	38.5	42.3	48	24.0	6	13	248	0.00	29.913 
01:45	42.5	39.4	42.5	48	24.2	5	16	270	0.00	29.907 
01:50	42.5	40.2	42.5	48	24.2	4	9	248	0.00	29.907 
01:55	42.5	39.4	42.5	48	24.2	5	14	248	0.00	29.907 
02:00	42.5	39.4	42.5	48	24.2	5	10	248	0.00	29.904 
02:05	42.3	40.0	42.3	48	24.0	4	7	248	0.00	29.904 
02:10	42.3	39.2	42.3	49	24.5	5	10	248	0.00	29.904 
02:15	42.5	39.4	42.5	48	24.2	5	12	248	0.00	29.892 
02:20	42.5	40.2	42.5	49	24.7	4	8	248	0.00	29.892 
02:25	42.6	40.3	42.6	49	24.8	4	9	248	0.00	29.892 
02:30	42.6	39.5	42.6	49	24.8	5	10	248	0.00	29.891 
02:35	42.8	40.6	42.8	50	25.5	4	10	248	0.00	29.891 
02:40	43.1	40.1	43.1	49	25.3	5	12	248	0.00	29.891 
02:45	43.2	40.2	43.2	49	25.3	5	11	248	0.00	29.887 
02:50	43.5	40.6	43.5	49	25.6	5	14	248	0.00	29.887 
02:55	43.6	41.5	43.6	49	25.7	4	14	248	0.00	29.887 
03:00	43.9	41.1	43.9	49	26.0	5	11	248	0.00	29.878 
03:05	44.2	40.2	44.2	48	25.8	7	13	248	0.00	29.878 
03:10	44.2	40.8	44.2	48	25.8	6	15	270	0.00	29.878 
03:15	44.2	40.8	44.2	49	26.3	6	17	248	0.00	29.878 
03:20	44.2	40.2	44.2	49	26.3	7	21	248	0.00	29.878 
03:25	44.1	41.3	44.1	49	26.2	5	11	248	0.00	29.878 
03:30	43.9	40.4	43.9	50	26.5	6	17	248	0.00	29.875 
03:35	43.6	40.0	43.6	50	26.2	6	14	270	0.00	29.875 
03:40	43.5	39.4	43.5	51	26.6	7	14	248	0.00	29.875 
03:45	43.3	40.3	43.3	51	26.4	5	11	270	0.00	29.879 
03:50	43.1	40.1	43.1	52	26.7	5	11	248	0.00	29.879 
03:55	42.9	39.2	42.9	53	27.0	6	11	270	0.00	29.879 
04:00	42.9	39.2	42.9	53	27.0	6	14	270	0.00	29.874 
04:05	42.8	39.8	42.8	54	27.3	5	12	270	0.00	29.874 
04:10	42.6	38.3	42.6	54	27.1	7	16	248	0.00	29.874 
04:15	42.5	39.4	42.5	54	27.0	5	12	270	0.00	29.871 
04:20	42.2	39.9	42.2	55	27.2	4	12	248	0.00	29.871 
04:25	42.2	39.1	42.2	55	27.2	5	13	248	0.00	29.871 
04:30	42.2	39.1	42.2	56	27.6	5	10	248	0.00	29.872 
04:35	42.1	39.7	42.1	56	27.5	4	10	248	0.00	29.872 
04:40	41.9	39.5	41.9	57	27.8	4	11	270	0.00	29.872 
04:45	41.9	38.7	41.9	57	27.8	5	14	248	0.00	29.880 
04:50	41.8	39.4	41.8	58	28.1	4	8	248	0.00	29.880 
04:55	41.8	38.6	41.8	58	28.1	5	11	248	0.00	29.880 
05:00	41.6	41.6	41.6	59	28.3	3	8	248	0.00	29.887 
05:05	41.5	41.5	41.5	59	28.3	3	11	248	0.00	29.887 
05:10	41.5	41.5	41.5	60	28.7	3	7	248	0.00	29.887 
05:15	41.5	41.5	41.5	61	29.1	3	10	248	0.00	29.894 
05:20	41.3	41.3	41.3	61	28.9	3	7	248	0.00	29.894 
05:25	41.2	41.2	41.2	62	29.2	3	5	270	0.00	29.894 
05:30	40.9	40.9	40.9	62	28.9	3	9	270	0.00	29.901 
05:35	40.8	40.8	40.8	63	29.2	3	6	270	0.00	29.901 
05:40	40.6	40.6	40.6	64	29.4	3	4	248	0.00	29.901 
05:45	40.5	40.5	40.5	64	29.3	3	6	270	0.00	29.909 
05:50	40.2	40.2	40.2	65	29.4	3	6	270	0.00	29.909 
05:55	39.9	39.9	39.9	65	29.1	2	6	270	0.00	29.909 
06:00	39.6	39.6	39.6	66	29.2	3	5	270	0.00	29.920 
06:05	39.5	39.5	39.5	66	29.1	3	6	270	0.00	29.920 
06:10	39.3	39.3	39.3	67	29.3	2	3	248	0.00	29.920 
06:15	39.3	39.3	39.3	67	29.3	2	4	270	0.00	29.936 
06:20	39.3	39.3	39.3	67	29.3	3	10	270	0.00	29.936 
06:25	39.8	39.8	39.8	65	29.0	3	9	270	0.00	29.936 
06:30	39.9	39.9	39.9	64	28.7	3	6	270	0.00	29.937 
06:35	40.1	40.1	40.1	64	28.9	3	8	270	0.00	29.937 
06:40	39.8	39.8	39.8	64	28.6	2	6	292	0.00	29.937 
06:45	39.6	39.6	39.6	64	28.4	3	7	292	0.00	29.948 
06:50	39.3	39.3	39.3	65	28.5	3	10	315	0.00	29.948 
06:55	39.2	39.2	39.2	65	28.4	3	6	270	0.00	29.948 
07:00	39.1	39.1	39.1	66	28.7	3	8	315	0.00	29.960 
07:05	38.8	35.9	38.8	66	28.4	4	10	315	0.00	29.960 
07:10	38.3	35.4	38.3	66	28.0	4	10	315	0.00	29.960 
07:15	37.9	37.9	37.9	67	27.9	3	9	315	0.00	29.976 
07:20	37.5	37.5	37.5	68	27.9	2	4	338	0.00	29.976 
07:25	37.2	37.2	37.2	67	27.3	3	9	338	0.00	29.976 
07:30	37.0	37.0	37.0	67	27.1	3	9	338	0.00	29.989 
07:35	37.0	37.0	37.0	67	27.1	3	10	315	0.00	29.989 
07:40	36.9	36.9	36.9	66	26.6	2	8	292	0.00	29.989 
07:45	36.8	36.8	36.8	66	26.5	3	7	315	0.00	29.999 
07:50	36.8	36.8	36.8	64	25.8	3	7	292	0.00	29.999 
07:55	36.8	33.6	36.8	62	25.0	4	12	292	0.00	29.999 
08:00	36.8	36.8	36.8	62	25.0	3	9	292	0.00	30.008 
08:05	36.6	36.6	36.6	59	23.6	3	10	315	0.00	30.008 
08:10	36.6	33.4	36.6	58	23.2	4	10	315	0.00	30.008 
08:15	36.5	32.4	36.5	57	22.7	5	11	292	0.00	30.028 
08:20	36.2	32.9	36.2	58	22.9	4	9	315	0.00	30.028 
08:25	35.8	32.5	35.8	59	22.9	4	12	315	0.00	30.028 
08:30	35.2	30.0	35.2	62	23.5	6	12	292	0.00	30.048 
08:35	34.7	30.2	34.7	64	23.8	5	11	292	0.00	30.048 
08:40	34.4	30.8	34.4	66	24.2	4	14	315	0.00	30.048 
08:45	34.3	29.8	34.3	66	24.1	5	11	270	0.00	30.063 
08:50	34.1	34.1	34.1	67	24.3	3	7	315	0.00	30.063 
08:55	33.7	29.1	33.7	67	23.9	5	11	315	0.00	30.063 
09:00	33.5	29.8	33.5	67	23.7	4	15	338	0.00	30.086 
09:05	33.4	29.7	33.4	65	22.9	4	13	292	0.00	30.086 
09:10	32.9	28.1	32.9	64	22.1	5	13	315	0.00	30.086 
09:15	32.8	32.8	32.8	65	22.3	3	9	338	0.00	30.096 
09:20	33.1	33.1	33.1	65	22.6	3	14	315	0.00	30.096 
09:25	33.2	33.2	33.2	65	22.7	3	7	292	0.00	30.096 
09:30	33.2	33.2	33.2	65	22.7	3	8	270	0.00	30.103 
09:35	32.9	29.1	32.9	64	22.1	4	9	292	0.00	30.103 
09:40	32.8	28.0	32.8	65	22.3	5	11	315	0.00	30.103 
09:45	32.8	29.0	32.8	65	22.3	4	10	315	0.00	30.119 
09:50	32.8	29.0	32.8	64	22.0	4	10	315	0.00	30.119 
09:55	33.1	28.4	33.1	62	21.5	5	13	315	0.00	30.119 
10:00	33.2	29.5	33.2	61	21.2	4	10	315	0.00	30.132 
10:05	33.2	29.5	33.2	61	21.2	4	11	315	0.00	30.132 
10:10	33.2	28.5	33.2	61	21.2	5	12	315	0.00	30.132 
10:15	33.1	29.3	33.1	59	20.4	4	11	292	0.00	30.144 
10:20	33.2	28.5	33.2	59	20.4	5	12	315	0.00	30.144 
10:25	33.4	28.7	33.4	60	21.0	5	16	315	0.00	30.144 
10:30	32.9	28.1	32.9	60	20.6	5	14	315	0.00	30.156 
10:35	32.8	29.0	32.8	60	20.5	4	11	0	0.00	30.156 
10:40	33.2	29.5	33.2	60	20.8	4	13	338	0.00	30.156 
10:45	33.8	29.2	33.8	58	20.6	5	11	338	0.00	30.160 
10:50	33.8	30.2	33.8	58	20.6	4	10	292	0.00	30.160 
10:55	34.0	34.0	34.0	59	21.2	3	13	315	0.00	30.160 
11:00	33.8	29.2	33.8	58	20.6	5	14	338	0.00	30.162 
11:05	34.0	34.0	34.0	59	21.2	3	10	338	0.00	30.162 
11:10	34.6	31.1	34.6	58	21.4	4	13	338	0.00	30.162 
11:15	34.1	29.5	34.1	58	20.9	5	11	315	0.00	30.164 
11:20	34.4	29.9	34.4	58	21.2	5	10	292	0.00	30.164 
11:25	35.2	30.8	35.2	58	21.9	5	15	270	0.00	30.164 
11:30	35.3	31.9	35.3	55	20.8	4	11	338	0.00	30.176 
11:35	35.0	30.6	35.0	58	21.7	5	13	338	0.00	30.176 
11:40	35.9	31.7	35.9	54	20.9	5	12	315	0.00	30.176 
11:45	36.2	32.9	36.2	55	21.6	4	10	292	0.00	30.185 
11:50	36.0	36.0	36.0	54	21.0	2	9	338	0.00	30.185 
11:55	36.0	31.8	36.0	54	21.0	5	14	270	0.00	30.185 
12:00	36.2	32.9	36.2	52	20.3	4	9	292	0.00	30.191 
12:05	36.3	31.4	36.3	54	21.3	6	12	315	0.00	30.191 
12:10	35.9	32.6	35.9	53	20.5	4	11	0	0.00	30.191 
12:15	35.8	35.8	35.8	55	21.2	3	7	0	0.00	30.198 
12:20	36.5	33.3	36.5	52	20.6	4	14	292	0.00	30.198 
12:25	36.6	36.6	36.6	52	20.7	3	7	315	0.00	30.198 
12:30	36.9	36.9	36.9	51	20.5	3	7	292	0.00	30.209 
12:35	37.3	34.2	37.3	50	20.4	4	10	292	0.00	30.209 
12:40	37.6	34.5	37.6	48	19.7	4	10	338	0.00	30.209 
12:45	37.5	34.4	37.5	52	21.5	4	9	270	0.00	30.204 
12:50	37.6	34.5	37.6	51	21.1	4	10	270	0.00	30.204 
12:55	38.3	38.3	38.3	47	19.9	3	7	338	0.00	30.204 
13:00	37.8	34.8	37.8	48	19.9	4	9	338	0.00	30.209 
13:05	37.8	37.8	37.8	47	19.4	3	12	338	0.00	30.209 
13:10	37.6	37.6	37.6	46	18.7	3	9	270	0.00	30.209 
13:15	37.8	37.8	37.8	45	18.4	3	9	292	0.00	30.213 
13:20	37.8	34.8	37.8	42	16.8	4	10	292	0.00	30.213 
13:25	37.9	34.0	37.9	43	17.4	5	12	292	0.00	30.213 
13:30	38.2	35.2	38.2	40	16.0	4	10	338	0.00	30.213 
13:35	38.8	38.8	38.8	39	16.0	3	9	0	0.00	30.213 
13:40	37.9	34.9	37.9	39	15.2	4	9	315	0.00	30.213 
13:45	36.9	33.7	36.9	39	14.3	4	10	338	0.00	30.214 
13:50	36.6	33.4	36.6	39	14.0	4	10	292	0.00	30.214 
13:55	37.2	34.1	37.2	36	12.7	4	12	315	0.00	30.214 
14:00	37.9	34.9	37.9	39	15.2	4	13	315	0.00	30.221 
14:05	38.2	38.2	38.2	36	13.6	3	13	0	0.00	30.221 
14:10	36.8	33.6	36.8	38	13.6	4	9	338	0.00	30.221 
14:15	37.8	37.8	37.8	39	15.1	3	7	315	0.00	30.224 
14:20	38.8	38.8	38.8	38	15.4	3	9	270	0.00	30.224 
14:25	38.8	35.9	38.8	34	12.9	4	14	315	0.00	30.224 
14:30	38.3	35.4	38.3	34	12.4	4	11	315	0.00	30.250 
14:35	37.3	34.2	37.3	37	13.4	4	10	0	0.00	30.250 
14:40	37.5	34.4	37.5	39	14.8	4	10	292	0.00	30.250 
14:45	37.9	34.0	37.9	39	15.2	5	10	315	0.00	30.253 
14:50	38.0	35.0	38.0	40	15.8	4	11	315	0.00	30.253 
14:55	37.9	34.9	37.9	38	14.6	4	11	338	0.00	30.253 
15:00	37.8	33.9	37.8	37	13.9	5	12	270	0.00	30.246 
15:05	37.5	34.4	37.5	35	12.4	4	11	315	0.00	30.246 
15:10	37.6	34.5	37.6	38	14.3	4	10	270	0.00	30.246 
15:15	37.2	33.2	37.2	38	14.0	5	12	292	0.00	30.245 
15:20	37.2	34.1	37.2	35	12.1	4	9	292	0.00	30.245 
15:25	37.5	37.5	37.5	36	13.0	3	9	292	0.00	30.245 
15:30	37.5	34.4	37.5	36	13.0	4	12	292	0.00	30.254 
15:35	36.8	32.7	36.8	36	12.4	5	10	338	0.00	30.254 
15:40	36.8	36.8	36.8	37	13.0	3	9	338	0.00	30.254 
15:45	36.5	32.4	36.5	33	10.2	5	15	315	0.00	30.255 
15:50	36.3	32.1	36.3	35	11.3	5	15	292	0.00	30.255 
15:55	36.2	32.0	36.2	34	10.6	5	12	292	0.00	30.255 
16:00	36.3	33.0	36.3	32	9.3	4	13	338	0.00	30.271 
16:05	36.0	31.8	36.0	35	11.0	5	12	315	0.00	30.271 
16:10	36.0	32.7	36.0	32	9.0	4	11	338	0.00	30.271 
16:15	35.9	31.7	35.9	33	9.6	5	11	270	0.00	30.282 
16:20	35.6	32.2	35.6	33	9.4	4	11	338	0.00	30.282 
16:25	35.5	32.1	35.5	36	11.2	4	10	315	0.00	30.282 
16:30	35.3	31.0	35.3	38	12.3	5	13	292	0.00	30.289 
16:35	35.2	30.8	35.2	35	10.3	5	15	315	0.00	30.289 
16:40	34.9	31.4	34.9	35	10.1	4	10	315	0.00	30.289 
16:45	34.7	31.2	34.7	34	9.2	4	11	315	0.00	30.295 
16:50	34.3	30.7	34.3	37	10.8	4	9	338	0.00	30.295 
16:55	34.1	30.5	34.1	36	10.0	4	13	292	0.00	30.295 
17:00	34.0	34.0	34.0	39	11.7	3	8	315	0.00	30.302 
17:05	33.8	30.2	33.8	39	11.5	4	11	315	0.00	30.302 
17:10	33.7	30.0	33.7	40	12.0	4	10	315	0.00	30.302 
17:15	33.4	28.7	33.4	41	12.3	5	12	338	0.00	30.302 
17:20	33.2	29.5	33.2	39	11.0	4	10	315	0.00	30.302 
17:25	33.1	29.3	33.1	36	9.1	4	10	315	0.00	30.302 
17:30	32.7	28.9	32.7	35	8.1	4	11	0	0.00	30.312 
17:35	32.5	32.5	32.5	37	9.2	2	9	0	0.00	30.312 
17:40	32.5	28.7	32.5	36	8.5	4	11	315	0.00	30.312 
17:45	32.2	32.2	32.2	36	8.3	3	7	338	0.00	30.322 
17:50	31.9	28.0	31.9	39	9.8	4	12	338	0.00	30.322 
17:55	31.8	31.8	31.8	42	11.4	2	6	338	0.00	30.322 
18:00	31.5	31.5	31.5	41	10.5	3	7	0	0.00	30.334 
18:05	31.0	26.9	31.0	43	11.2	4	10	315	0.00	30.334 
18:10	30.7	25.5	30.7	43	10.9	5	14	315	0.00	30.334 
18:15	30.3	25.1	30.3	44	11.0	5	12	292	0.00	30.342 
18:20	30.0	30.0	30.0	46	11.8	3	6	315	0.00	30.342 
18:25	29.8	29.8	29.8	47	12.1	3	12	315	0.00	30.342 
18:30	29.5	29.5	29.5	48	12.3	2	10	292	0.00	30.357 
18:35	29.3	29.3	29.3	49	12.5	3	7	315	0.00	30.357 
18:40	29.0	29.0	29.0	50	12.7	2	6	270	0.00	30.357 
18:45	28.8	28.8	28.8	48	11.6	3	7	315	0.00	30.361 
18:50	28.5	28.5	28.5	47	10.9	2	10	315	0.00	30.361 
18:55	28.4	28.4	28.4	48	11.2	3	10	315	0.00	30.361 
19:00	28.2	28.2	28.2	50	12.0	3	7	315	0.00	30.372 
19:05	28.1	28.1	28.1	49	11.4	3	11	338	0.00	30.372 
19:10	27.9	27.9	27.9	48	10.8	3	11	292	0.00	30.372 
19:15	27.8	23.2	27.8	48	10.7	4	9	315	0.00	30.378 
19:20	27.6	27.6	27.6	49	11.0	3	7	292	0.00	30.378 
19:25	27.3	27.3	27.3	48	10.2	3	10	315	0.00	30.378 
19:30	27.2	27.2	27.2	49	10.6	2	7	338	0.00	30.379 
19:35	27.0	27.0	27.0	49	10.4	3	9	338	0.00	30.379 
19:40	26.9	26.9	26.9	48	9.9	3	7	270	0.00	30.379 
19:45	26.9	22.2	26.9	47	9.4	4	12	315	0.00	30.388 
19:50	26.6	26.6	26.6	47	9.1	3	7	315	0.00	30.388 
19:55	26.6	26.6	26.6	47	9.1	3	11	338	0.00	30.388 
20:00	26.4	26.4	26.4	47	8.9	2	5	338	0.00	30.395 
20:05	26.3	26.3	26.3	47	8.8	3	6	338	0.00	30.395 
20:10	26.0	26.0	26.0	47	8.6	2	5	315	0.00	30.395 
20:15	26.0	26.0	26.0	47	8.6	3	10	315	0.00	30.402 
20:20	25.8	25.8	25.8	47	8.4	2	7	338	0.00	30.402 
20:25	25.7	25.7	25.7	47	8.3	2	9	338	0.00	30.402 
20:30	25.6	25.6	25.6	47	8.2	2	7	315	0.00	30.412 
20:35	25.6	25.6	25.6	48	8.7	3	8	338	0.00	30.412 
20:40	25.4	25.4	25.4	48	8.5	2	5	338	0.00	30.412 
20:45	25.3	25.3	25.3	48	8.4	2	6	0	0.00	30.419 
20:50	25.3	25.3	25.3	49	8.8	2	6	315	0.00	30.419 
20:55	25.3	25.3	25.3	49	8.8	3	9	338	0.00	30.419 
21:00	25.3	25.3	25.3	49	8.8	3	7	292	0.00	30.427 
21:05	25.3	25.3	25.3	50	9.3	3	7	315	0.00	30.427 
21:10	25.1	25.1	25.1	50	9.1	3	11	0	0.00	30.427 
21:15	25.1	25.1	25.1	50	9.1	2	6	338	0.00	30.427 
21:20	25.0	25.0	25.0	51	9.5	2	7	292	0.00	30.427 
21:25	24.8	24.8	24.8	52	9.7	2	5	292	0.00	30.427 
21:30	24.8	24.8	24.8	51	9.3	3	7	315	0.00	30.430 
21:35	24.7	24.7	24.7	51	9.2	2	5	338	0.00	30.430 
21:40	24.5	24.5	24.5	51	9.0	2	6	0	0.00	30.430 
21:45	24.4	24.4	24.4	51	8.9	2	5	338	0.00	30.440 
21:50	24.5	24.5	24.5	51	9.0	3	11	292	0.00	30.440 
21:55	24.4	24.4	24.4	51	8.9	2	6	292	0.00	30.440 
22:00	24.2	24.2	24.2	52	9.1	2	5	315	0.00	30.446 
22:05	24.4	24.4	24.4	50	8.5	2	9	338	0.00	30.446 
22:10	24.4	24.4	24.4	50	8.5	1	3	338	0.00	30.446 
22:15	24.2	24.2	24.2	50	8.3	1	4	0	0.00	30.442 
22:20	24.2	24.2	24.2	50	8.3	2	9	22	0.00	30.442 
22:25	24.1	24.1	24.1	50	8.2	1	4	338	0.00	30.442 
22:30	24.1	24.1	24.1	50	8.2	1	5	22	0.00	30.444 
22:35	23.9	23.9	23.9	51	8.4	2	6	0	0.00	30.444 
22:40	23.8	23.8	23.8	51	8.3	1	3	0	0.00	30.444 
22:45	23.8	23.8	23.8	51	8.3	1	4	315	0.00	30.443 
22:50	23.6	23.6	23.6	52	8.6	1	3	22	0.00	30.443 
22:55	23.5	23.5	23.5	52	8.5	1	3	0	0.00	30.443 
23:00	23.3	23.3	23.3	53	8.7	1	4	292	0.00	30.446 
23:05	23.2	23.2	23.2	53	8.6	1	3	0	0.00	30.446 
23:10	23.2	23.2	23.2	53	8.6	1	4	22	0.00	30.446 
23:15	23.0	23.0	23.0	53	8.4	1	2	0	0.00	30.444 
23:20	23.0	23.0	23.0	54	8.9	1	3	22	0.00	30.444 
23:25	22.9	22.9	22.9	54	8.8	1	4	292	0.00	30.444 
23:30	22.9	22.9	22.9	54	8.8	1	4	338	0.00	30.445 
23:35	22.7	22.7	22.7	54	8.6	1	4	338	0.00	30.445 
23:40	22.7	22.7	22.7	54	8.6	1	2	0	0.00	30.445 
23:45	22.7	22.7	22.7	54	8.6	1	3	338	0.00	30.445 
23:50	22.5	22.5	22.5	54	8.4	1	4	22	0.00	30.445 
23:55	22.5	22.5	22.5	54	8.4	0	2	315	0.00	30.445 

CoCoRaHS
IN-AL-39
A2 Web Hosting
Creative Commons License
GoDaddy
Look for:

loaded 2017-12-12 01:49:25 • last modified 2010-11-18 10:43:29
Privacy PolicyDisclaimer
• wx.awcolley.com is powered by PmWiki v.2002016 •
• all content (unless otherwise noted) © 2017 A W Colley